Time;durP1;ratioP1;P1;durP2;ratioP2;P2;SDS_P1;SDS_P2;PMS_P1;PMS_P2;Temp;Humidity;BMP_temperature;BMP_pressure;BME280_temperature;BME280_humidity;BME280_pressure;Samples;Min_cycle;Max_cycle;Signal;HPM_P1;HPM_P2
2021/10/28 00:13:08;;;;;;;80.83;16.13;;;;;;;-145.18;100.00;60484.78;5074445;28;20668;-67
2021/10/28 00:15:39;;;;;;;66.57;14.17;;;;;;;-145.18;100.00;60484.78;5076502;28;20032;-67
2021/10/28 00:18:10;;;;;;;65.57;14.50;;;;;;;-145.18;100.00;60484.78;5076260;28;20530;-67
2021/10/28 00:20:37;;;;;;;78.70;16.57;;;;;;;-145.18;100.00;60484.78;5075128;28;20361;-67
2021/10/28 00:23:04;;;;;;;74.50;16.03;;;;;;;-145.18;100.00;60484.78;5070034;28;20078;-67
2021/10/28 00:25:32;;;;;;;78.63;15.93;;;;;;;-145.18;100.00;60484.78;5073050;28;20069;-67
2021/10/28 00:27:58;;;;;;;76.10;16.37;;;;;;;-145.18;100.00;60484.78;5073209;28;20028;-67
2021/10/28 00:30:23;;;;;;;87.43;16.73;;;;;;;-145.18;100.00;60484.78;5065985;28;20035;-67
2021/10/28 00:32:49;;;;;;;80.43;16.43;;;;;;;-145.18;100.00;60484.78;5072914;28;20028;-68
2021/10/28 00:35:15;;;;;;;79.83;16.83;;;;;;;-145.18;100.00;60484.78;5074582;28;20063;-67
2021/10/28 00:37:41;;;;;;;64.23;15.37;;;;;;;-145.18;100.00;60484.78;5075295;28;20421;-68
2021/10/28 00:40:08;;;;;;;70.20;15.40;;;;;;;-145.18;100.00;60484.78;5075890;28;20032;-67
2021/10/28 00:42:35;;;;;;;75.07;16.27;;;;;;;-145.18;100.00;60484.78;5072269;28;20200;-67
2021/10/28 00:45:02;;;;;;;87.70;16.03;;;;;;;-145.18;100.00;60484.78;5073065;28;20024;-67
2021/10/28 00:47:33;;;;;;;83.40;17.67;;;;;;;-145.18;100.00;60484.78;5080153;28;20042;-67
2021/10/28 00:49:58;;;;;;;96.07;18.17;;;;;;;-145.18;100.00;60484.78;5069058;28;20035;-67
2021/10/28 00:52:24;;;;;;;95.37;18.60;;;;;;;-145.18;100.00;60484.78;5076197;28;20036;-67
2021/10/28 00:54:53;;;;;;;103.50;18.77;;;;;;;-145.18;100.00;60484.78;5077166;28;20085;-67
2021/10/28 00:57:18;;;;;;;94.67;17.87;;;;;;;-145.18;100.00;60484.78;5077289;28;20031;-67
2021/10/28 00:59:45;;;;;;;83.20;18.87;;;;;;;-145.18;100.00;60484.78;5077137;28;20031;-67
2021/10/28 01:02:11;;;;;;;97.67;20.30;;;;;;;-145.18;100.00;60484.78;5072768;28;20028;-67
2021/10/28 01:04:37;;;;;;;109.77;20.83;;;;;;;-145.18;100.00;60484.78;5069352;28;20055;-67
2021/10/28 01:07:04;;;;;;;91.00;19.57;;;;;;;-145.18;100.00;60484.78;5070102;28;20036;-67
2021/10/28 01:09:29;;;;;;;106.17;20.30;;;;;;;-145.18;100.00;60484.78;5068789;28;20115;-67
2021/10/28 01:11:56;;;;;;;106.50;19.73;;;;;;;-145.18;100.00;60484.78;5072266;28;20197;-67
2021/10/28 01:14:22;;;;;;;100.57;20.27;;;;;;;-145.18;100.00;60484.78;5072720;28;20028;-67
2021/10/28 01:16:48;;;;;;;91.20;18.63;;;;;;;-145.18;100.00;60484.78;5068306;28;20415;-67
2021/10/28 01:19:14;;;;;;;111.70;19.80;;;;;;;-145.18;100.00;60484.78;5069291;28;20421;-67
2021/10/28 01:21:43;;;;;;;108.77;21.10;;;;;;;-145.18;100.00;60484.78;5067731;28;20025;-67
2021/10/28 01:24:09;;;;;;;107.50;20.20;;;;;;;-145.18;100.00;60484.78;5075946;28;20479;-67
2021/10/28 01:26:35;;;;;;;99.33;19.30;;;;;;;-145.18;100.00;60484.78;5077017;28;20049;-67
2021/10/28 01:29:03;;;;;;;105.13;20.67;;;;;;;-145.18;100.00;60484.78;5081278;28;20636;-67
2021/10/28 01:31:31;;;;;;;119.37;21.50;;;;;;;-145.18;100.00;60484.78;5075748;28;20023;-66
2021/10/28 01:33:58;;;;;;;122.73;22.43;;;;;;;-145.18;100.00;60484.78;5080520;28;20028;-68
2021/10/28 01:36:25;;;;;;;114.17;21.73;;;;;;;-145.18;100.00;60484.78;5080961;28;20032;-68
2021/10/28 01:38:52;;;;;;;127.13;22.40;;;;;;;-145.18;100.00;60484.78;5078069;28;20031;-67
2021/10/28 01:41:19;;;;;;;128.40;23.87;;;;;;;-145.18;100.00;60484.78;5078653;28;20016;-67
2021/10/28 01:43:45;;;;;;;127.23;22.60;;;;;;;-145.18;100.00;60484.78;5080361;28;20101;-67
2021/10/28 01:46:11;;;;;;;120.27;22.50;;;;;;;-145.18;100.00;60484.78;5077632;28;20235;-67
2021/10/28 01:48:41;;;;;;;115.23;22.90;;;;;;;-145.18;100.00;60484.78;5078241;28;20158;-67
2021/10/28 01:51:11;;;;;;;118.63;22.23;;;;;;;-145.18;100.00;60484.78;5072986;28;20290;-67
2021/10/28 01:53:41;;;;;;;106.30;21.20;;;;;;;-145.18;100.00;60484.78;5086828;28;20032;-67
2021/10/28 01:56:08;;;;;;;109.17;21.60;;;;;;;-145.18;100.00;60484.78;5075034;28;20027;-67
2021/10/28 01:58:35;;;;;;;109.70;22.00;;;;;;;-145.18;100.00;60484.78;5086949;28;20029;-67
2021/10/28 02:01:01;;;;;;;105.07;21.77;;;;;;;-145.18;100.00;60484.78;5079961;28;20670;-67
2021/10/28 02:03:26;;;;;;;113.67;21.67;;;;;;;-145.18;100.00;60484.78;5079289;28;20089;-67
2021/10/28 02:05:53;;;;;;;118.27;22.00;;;;;;;-145.18;100.00;60484.78;5075876;28;20281;-67
2021/10/28 02:08:19;;;;;;;120.77;22.80;;;;;;;-145.18;100.00;60484.78;5072220;28;20031;-67
2021/10/28 02:10:45;;;;;;;110.10;22.60;;;;;;;-145.18;100.00;60484.78;5066974;28;20028;-67
2021/10/28 02:13:11;;;;;;;117.70;21.80;;;;;;;-145.18;100.00;60484.78;5066382;28;20451;-67
2021/10/28 02:15:36;;;;;;;114.07;22.70;;;;;;;-145.18;100.00;60484.78;5066418;28;20323;-67
2021/10/28 02:18:02;;;;;;;110.47;20.67;;;;;;;-145.18;100.00;60484.78;5068526;28;20071;-67
2021/10/28 02:20:28;;;;;;;106.63;20.87;;;;;;;-145.18;100.00;60484.78;5069160;28;20020;-67
2021/10/28 02:22:53;;;;;;;121.37;21.93;;;;;;;-145.18;100.00;60484.78;5079685;28;20027;-67
2021/10/28 02:25:19;;;;;;;119.73;20.60;;;;;;;-145.18;100.00;60484.78;5081890;28;20094;-67
2021/10/28 02:27:46;;;;;;;124.93;20.83;;;;;;;-145.18;100.00;60484.78;5079435;28;20032;-67
2021/10/28 02:30:14;;;;;;;116.17;20.17;;;;;;;-145.18;100.00;60484.78;5076989;28;20560;-67
2021/10/28 02:32:41;;;;;;;118.30;21.00;;;;;;;-145.18;100.00;60484.78;5070862;28;20251;-67
2021/10/28 02:35:08;;;;;;;116.17;21.83;;;;;;;-145.18;100.00;60484.78;5072736;28;20027;-67
2021/10/28 02:37:33;;;;;;;121.57;21.63;;;;;;;-145.18;100.00;60484.78;5076372;28;20032;-67
2021/10/28 02:39:59;;;;;;;112.13;21.97;;;;;;;-145.18;100.00;60484.78;5079524;28;20249;-67
2021/10/28 02:42:25;;;;;;;124.27;22.30;;;;;;;-145.18;100.00;60484.78;5080062;28;20272;-67
2021/10/28 02:44:50;;;;;;;125.27;21.50;;;;;;;-145.18;100.00;60484.78;5080634;28;20563;-67
2021/10/28 02:47:16;;;;;;;120.17;21.83;;;;;;;-145.18;100.00;60484.78;5075357;28;20024;-67
2021/10/28 02:49:42;;;;;;;119.40;21.10;;;;;;;-145.18;100.00;60484.78;5077193;28;20500;-67
2021/10/28 02:52:08;;;;;;;125.60;23.20;;;;;;;-145.18;100.00;60484.78;5080383;28;20028;-67
2021/10/28 02:54:34;;;;;;;120.20;22.63;;;;;;;-145.18;100.00;60484.78;5075492;28;20038;-67
2021/10/28 02:57:01;;;;;;;128.33;21.57;;;;;;;-145.18;100.00;60484.78;5080042;28;20032;-71
2021/10/28 02:59:26;;;;;;;112.43;20.63;;;;;;;-145.18;100.00;60484.78;5078898;28;20024;-71
2021/10/28 03:01:54;;;;;;;110.97;20.63;;;;;;;-145.18;100.00;60484.78;5078877;28;20038;-71
2021/10/28 03:04:21;;;;;;;129.37;22.53;;;;;;;-145.18;100.00;60484.78;5077217;28;20715;-70
2021/10/28 03:06:48;;;;;;;124.90;22.63;;;;;;;-145.18;100.00;60484.78;5077800;28;20392;-70
2021/10/28 03:09:17;;;;;;;123.37;21.70;;;;;;;-145.18;100.00;60484.78;5079311;28;20073;-70
2021/10/28 03:11:43;;;;;;;116.67;22.87;;;;;;;-145.18;100.00;60484.78;5078842;28;20051;-70
2021/10/28 03:14:12;;;;;;;133.50;21.83;;;;;;;-145.18;100.00;60484.78;5076283;28;20035;-70
2021/10/28 03:16:58;;;;;;;120.23;20.57;;;;;;;-145.18;100.00;60484.78;5075488;28;20024;-70
2021/10/28 03:27:37;;;;;;;114.60;21.37;;;;;;;-145.18;100.00;60484.78;5076268;28;20093;-70
2021/10/28 03:30:05;;;;;;;112.70;20.83;;;;;;;-145.18;100.00;60484.78;5075476;28;20027;-70
2021/10/28 03:32:30;;;;;;;120.67;22.03;;;;;;;-145.18;100.00;60484.78;5079533;28;20020;-70
2021/10/28 03:34:56;;;;;;;115.97;21.50;;;;;;;-145.18;100.00;60484.78;5078164;28;20020;-70
2021/10/28 03:37:36;;;;;;;119.90;23.07;;;;;;;-145.18;100.00;60484.78;5078875;28;20028;-70
2021/10/28 03:47:22;;;;;;;110.43;20.50;;;;;;;-145.18;100.00;60484.78;4978355;28;20038;-70
2021/10/28 04:06:47;;;;;;;103.23;18.77;;;;;;;-145.18;100.00;60484.78;4880857;29;20509;-70
2021/10/28 04:20:33;;;;;;;116.23;19.20;;;;;;;-145.18;100.00;60484.78;4855472;29;20044;-70
2021/10/28 04:31:10;;;;;;;109.63;18.67;;;;;;;-145.18;100.00;60484.78;4872667;29;20572;-71
2021/10/28 04:33:41;;;;;;;114.67;18.77;;;;;;;-145.18;100.00;60484.78;4899261;29;20052;-70
2021/10/28 04:36:07;;;;;;;106.10;17.30;;;;;;;-145.18;100.00;60484.78;4899881;29;20036;-70
2021/10/28 04:38:33;;;;;;;111.87;18.57;;;;;;;-145.18;100.00;60484.78;4937310;28;20344;-70
2021/10/28 04:40:58;;;;;;;109.20;17.30;;;;;;;-145.18;100.00;60484.78;4937321;29;20114;-70
2021/10/28 04:43:24;;;;;;;115.37;18.90;;;;;;;-145.18;100.00;60484.78;4937353;28;20024;-71
2021/10/28 04:48:37;;;;;;;117.50;17.77;;;;;;;-145.18;100.00;60484.78;4944138;28;20482;-70
2021/10/28 04:51:02;;;;;;;104.93;17.60;;;;;;;-145.18;100.00;60484.78;4938824;28;20035;-70
2021/10/28 04:53:28;;;;;;;96.30;17.57;;;;;;;-145.18;100.00;60484.78;4973195;28;20037;-70
2021/10/28 04:55:57;;;;;;;92.67;16.70;;;;;;;-145.18;100.00;60484.78;5074456;28;20042;-70
2021/10/28 04:58:23;;;;;;;100.10;17.10;;;;;;;-145.18;100.00;60484.78;5078633;28;20077;-70
2021/10/28 05:00:49;;;;;;;93.73;15.97;;;;;;;-145.18;100.00;60484.78;5077319;28;20028;-70
2021/10/28 05:03:15;;;;;;;88.00;16.93;;;;;;;-145.18;100.00;60484.78;5078177;28;20027;-70
2021/10/28 05:05:40;;;;;;;95.53;16.87;;;;;;;-145.18;100.00;60484.78;5077816;28;20538;-70
2021/10/28 05:08:06;;;;;;;86.73;15.90;;;;;;;-145.18;100.00;60484.78;5078505;28;20103;-70
2021/10/28 05:10:33;;;;;;;82.53;17.40;;;;;;;-145.18;100.00;60484.78;5077664;28;20488;-70
2021/10/28 05:12:59;;;;;;;90.50;15.73;;;;;;;-145.18;100.00;60484.78;5078026;28;20016;-70
2021/10/28 05:15:24;;;;;;;89.07;17.27;;;;;;;-145.18;100.00;60484.78;5078105;28;20438;-70
2021/10/28 05:17:50;;;;;;;92.33;17.87;;;;;;;-145.18;100.00;60484.78;5078307;28;20020;-70
2021/10/28 05:20:15;;;;;;;83.17;17.00;;;;;;;-145.18;100.00;60484.78;5077965;28;20027;-70
2021/10/28 05:22:41;;;;;;;85.90;16.17;;;;;;;-145.18;100.00;60484.78;5069707;28;20543;-70
2021/10/28 05:25:07;;;;;;;93.63;17.70;;;;;;;-145.18;100.00;60484.78;5077968;28;20039;-70
2021/10/28 05:27:33;;;;;;;87.73;15.93;;;;;;;-145.18;100.00;60484.78;5064835;28;20040;-72
2021/10/28 05:29:58;;;;;;;77.40;15.07;;;;;;;-145.18;100.00;60484.78;5083057;28;20456;-71
2021/10/28 05:32:24;;;;;;;78.77;15.13;;;;;;;-145.18;100.00;60484.78;5064742;28;20021;-70
2021/10/28 05:34:49;;;;;;;82.83;16.03;;;;;;;-145.18;100.00;60484.78;5072721;28;20055;-70
2021/10/28 05:37:16;;;;;;;96.17;14.97;;;;;;;-145.18;100.00;60484.78;5064899;28;20561;-70
2021/10/28 05:39:42;;;;;;;93.07;15.70;;;;;;;-145.18;100.00;60484.78;5077515;28;20523;-70
2021/10/28 05:42:08;;;;;;;84.13;14.47;;;;;;;-145.18;100.00;60484.78;5068324;28;20052;-70
2021/10/28 05:44:33;;;;;;;79.00;15.07;;;;;;;-145.18;100.00;60484.78;5077158;28;20032;-70
2021/10/28 05:46:59;;;;;;;90.67;14.47;;;;;;;-145.18;100.00;60484.78;5075808;28;20019;-70
2021/10/28 05:49:27;;;;;;;85.30;15.00;;;;;;;-145.18;100.00;60484.78;5077977;28;20031;-70
2021/10/28 05:51:53;;;;;;;95.70;15.03;;;;;;;-145.18;100.00;60484.78;5077741;28;20028;-70
2021/10/28 05:54:18;;;;;;;83.93;14.40;;;;;;;-145.18;100.00;60484.78;5077842;28;20338;-70
2021/10/28 05:56:44;;;;;;;88.93;15.10;;;;;;;-145.18;100.00;60484.78;5079904;28;20577;-70
2021/10/28 05:59:12;;;;;;;93.57;16.20;;;;;;;-145.18;100.00;60484.78;5081505;28;20035;-71
2021/10/28 06:01:39;;;;;;;79.77;14.47;;;;;;;-145.18;100.00;60484.78;5080744;28;20028;-71
2021/10/28 06:04:07;;;;;;;81.20;14.90;;;;;;;-145.18;100.00;60484.78;5081412;28;20504;-71
2021/10/28 06:06:34;;;;;;;91.03;15.70;;;;;;;-145.18;100.00;60484.78;5081668;28;20020;-71
2021/10/28 06:08:59;;;;;;;86.87;14.77;;;;;;;-145.18;100.00;60484.78;5081467;28;20146;-71
2021/10/28 06:11:25;;;;;;;86.67;14.23;;;;;;;-145.18;100.00;60484.78;5078933;28;20021;-71
2021/10/28 06:13:51;;;;;;;82.37;15.17;;;;;;;-145.18;100.00;60484.78;5081443;28;20032;-71
2021/10/28 06:16:17;;;;;;;86.10;14.83;;;;;;;-145.18;100.00;60484.78;5080971;28;20319;-71
2021/10/28 06:18:43;;;;;;;91.50;15.10;;;;;;;-145.18;100.00;60484.78;5081258;28;20388;-71
2021/10/28 06:21:10;;;;;;;78.47;14.40;;;;;;;-145.18;100.00;60484.78;5080562;28;20035;-71
2021/10/28 06:23:37;;;;;;;85.27;15.00;;;;;;;-145.18;100.00;60484.78;5081530;28;20210;-71
2021/10/28 06:26:03;;;;;;;81.80;14.77;;;;;;;-145.18;100.00;60484.78;5079977;28;20024;-71
2021/10/28 06:28:28;;;;;;;81.43;13.87;;;;;;;-145.18;100.00;60484.78;5078736;28;20405;-71
2021/10/28 06:30:54;;;;;;;83.17;15.23;;;;;;;-145.18;100.00;60484.78;5080255;28;20380;-71
2021/10/28 06:33:22;;;;;;;83.40;14.17;;;;;;;-145.18;100.00;60484.78;5081226;28;20040;-71
2021/10/28 06:35:48;;;;;;;75.70;14.77;;;;;;;-145.18;100.00;60484.78;5080818;28;20060;-71
2021/10/28 06:38:14;;;;;;;76.17;14.67;;;;;;;-145.18;100.00;60484.78;5080914;28;20639;-71
2021/10/28 06:40:40;;;;;;;78.47;14.27;;;;;;;-145.18;100.00;60484.78;5080843;28;20135;-71
2021/10/28 06:43:07;;;;;;;80.07;14.13;;;;;;;-145.18;100.00;60484.78;5080035;28;20032;-71
2021/10/28 06:45:33;;;;;;;83.17;14.73;;;;;;;-145.18;100.00;60484.78;5080643;28;20031;-71
2021/10/28 06:47:59;;;;;;;79.00;14.47;;;;;;;-145.18;100.00;60484.78;5080827;28;20384;-71
2021/10/28 06:50:29;;;;;;;74.83;14.57;;;;;;;-145.18;100.00;60484.78;5080352;28;20028;-71
2021/10/28 06:52:58;;;;;;;75.37;13.67;;;;;;;-145.18;100.00;60484.78;5080215;28;20073;-71
2021/10/28 06:55:47;;;;;;;81.40;14.50;;;;;;;-145.18;100.00;60484.78;5080336;28;20092;-71
2021/10/28 07:03:41;;;;;;;62.57;13.30;;;;;;;-145.18;100.00;60484.78;5070801;28;20182;-71
2021/10/28 07:06:18;;;;;;;76.40;14.97;;;;;;;-145.18;100.00;60484.78;5080051;28;20028;-71
2021/10/28 07:08:46;;;;;;;76.57;14.23;;;;;;;-145.18;100.00;60484.78;5079154;28;20508;-71
2021/10/28 07:11:16;;;;;;;64.43;13.47;;;;;;;-145.18;100.00;60484.78;5079458;28;20032;-71
2021/10/28 07:13:45;;;;;;;66.77;13.30;;;;;;;-145.18;100.00;60484.78;5080259;28;20028;-71
2021/10/28 07:16:26;;;;;;;62.43;13.90;;;;;;;-145.18;100.00;60484.78;5080245;28;20024;-70
2021/10/28 07:19:07;;;;;;;57.67;12.53;;;;;;;-145.18;100.00;60484.78;5080268;28;20071;-70
2021/10/28 07:21:50;;;;;;;70.60;13.60;;;;;;;-145.18;100.00;60484.78;5070413;28;20038;-71
2021/10/28 07:24:30;;;;;;;58.43;12.43;;;;;;;-145.18;100.00;60484.78;5079804;28;20051;-70
2021/10/28 07:27:20;;;;;;;62.10;13.53;;;;;;;-145.18;100.00;60484.78;5080272;28;20136;-71
2021/10/28 07:58:07;;;;;;;36.27;10.03;;;;;;;-145.18;100.00;60484.78;5079846;28;20089;-71
2021/10/28 08:06:22;;;;;;;24.20;7.50;;;;;;;-145.18;100.00;60484.78;4996398;28;20053;-71
2021/10/28 08:17:42;;;;;;;10.50;5.00;;;;;;;-145.18;100.00;60484.78;4937819;28;20039;-71
2021/10/28 08:23:16;;;;;;;12.73;5.13;;;;;;;-145.18;100.00;60484.78;4934840;29;20646;-70
2021/10/28 08:28:42;;;;;;;13.43;4.87;;;;;;;-145.18;100.00;60484.78;4938706;28;20050;-70
2021/10/28 08:31:08;;;;;;;10.07;5.00;;;;;;;-145.18;100.00;60484.78;4936682;28;20436;-70
2021/10/28 08:33:34;;;;;;;10.87;4.97;;;;;;;-145.18;100.00;60484.78;4936945;28;20321;-70
2021/10/28 08:36:09;;;;;;;9.20;4.83;;;;;;;-145.18;100.00;60484.78;4937083;28;20039;-70
2021/10/28 08:38:40;;;;;;;11.60;5.10;;;;;;;-145.18;100.00;60484.78;4935668;28;20023;-70
2021/10/28 08:41:07;;;;;;;15.27;5.23;;;;;;;-145.18;100.00;60484.78;4968268;28;20042;-70
2021/10/28 08:43:35;;;;;;;10.97;5.67;;;;;;;-145.18;100.00;60484.78;4969423;28;20330;-70
2021/10/28 08:46:03;;;;;;;13.63;5.73;;;;;;;-145.18;100.00;60484.78;4973077;28;20034;-70
2021/10/28 08:48:32;;;;;;;12.07;5.90;;;;;;;-145.18;100.00;60484.78;5037309;28;20127;-70
2021/10/28 08:51:47;;;;;;;12.23;5.87;;;;;;;-145.18;100.00;60484.78;5078093;28;20031;-70
2021/10/28 08:54:19;;;;;;;12.83;5.60;;;;;;;-145.18;100.00;60484.78;5067330;28;20063;-70
2021/10/28 08:57:10;;;;;;;10.77;5.23;;;;;;;-145.18;100.00;60484.78;5069430;28;20115;-70
2021/10/28 08:59:56;;;;;;;12.60;6.30;;;;;;;-145.18;100.00;60484.78;5077644;28;20117;-72
2021/10/28 09:25:46;;;;;;;13.30;6.10;;;;;;;-145.18;100.00;60484.78;4968124;28;20122;-70
2021/10/28 09:28:39;;;;;;;14.98;6.07;;;;;;;-145.18;100.00;60484.78;4974040;28;20201;-70
2021/10/28 09:31:14;;;;;;;12.20;6.27;;;;;;;-145.18;100.00;60484.78;4966748;28;20042;-70
2021/10/28 09:33:55;;;;;;;13.73;6.60;;;;;;;-145.18;100.00;60484.78;4979552;28;20121;-70
2021/10/28 09:47:49;;;;;;;12.43;5.50;;;;;;;-145.18;100.00;60484.78;5029544;28;20381;-70
2021/10/28 09:50:24;;;;;;;11.15;5.47;;;;;;;-145.18;100.00;60484.78;5039361;28;20095;-70
2021/10/28 09:53:28;;;;;;;11.53;6.00;;;;;;;-145.18;100.00;60484.78;5037977;28;20098;-70
2021/10/28 09:58:46;;;;;;;15.13;5.87;;;;;;;-145.18;100.00;60484.78;4975038;28;20042;-70
2021/10/28 10:01:32;;;;;;;9.30;5.17;;;;;;;-145.18;100.00;60484.78;4978724;28;20043;-70
2021/10/28 10:04:00;;;;;;;10.83;5.53;;;;;;;-145.18;100.00;60484.78;4971228;28;20108;-70
2021/10/28 10:06:27;;;;;;;11.63;5.70;;;;;;;-145.18;100.00;60484.78;4979119;28;20430;-70
2021/10/28 10:08:54;;;;;;;10.30;5.40;;;;;;;-145.18;100.00;60484.78;4979149;28;20277;-70
2021/10/28 10:11:24;;;;;;;11.60;5.77;;;;;;;-145.18;100.00;60484.78;4978718;28;20041;-70
2021/10/28 10:13:50;;;;;;;12.73;6.13;;;;;;;-145.18;100.00;60484.78;4978848;28;20026;-70
2021/10/28 10:16:15;;;;;;;12.60;5.63;;;;;;;-145.18;100.00;60484.78;4978743;28;20038;-70
2021/10/28 10:18:52;;;;;;;13.57;5.50;;;;;;;-145.18;100.00;60484.78;4979158;28;20034;-71
2021/10/28 10:21:36;;;;;;;12.30;6.20;;;;;;;-145.18;100.00;60484.78;4977854;28;20190;-70
2021/10/28 10:24:50;;;;;;;12.73;6.20;;;;;;;-145.18;100.00;60484.78;4978459;28;20121;-70
2021/10/28 10:28:30;;;;;;;12.20;5.60;;;;;;;-145.18;100.00;60484.78;4977018;28;20050;-70
2021/10/28 11:04:35;;;;;;;11.57;5.20;;;;;;;-145.18;100.00;60484.78;4972082;28;20069;-70
2021/10/28 11:15:43;;;;;;;9.90;5.60;;;;;;;-145.18;100.00;60484.78;5074017;28;20067;-70
2021/10/28 11:19:19;;;;;;;12.57;5.77;;;;;;;-145.18;100.00;60484.78;4996162;28;20132;-71
2021/10/28 11:21:38;;;;;;;14.07;5.33;;;;;;;-145.18;100.00;60484.78;4996800;28;20211;-71
2021/10/28 11:27:29;;;;;;;11.00;5.47;;;;;;;-145.18;100.00;60484.78;4971951;28;20074;-70
2021/10/28 11:30:33;;;;;;;14.40;5.30;;;;;;;-145.18;100.00;60484.78;4966826;28;20051;-71
2021/10/28 12:16:37;;;;;;;8.20;3.90;;;;;;;-145.18;100.00;60484.78;5079223;28;20467;-71
2021/10/28 12:45:01;;;;;;;7.23;3.37;;;;;;;-145.18;100.00;60484.78;5015576;28;20227;-71
2021/10/28 12:47:48;;;;;;;8.03;3.27;;;;;;;-145.18;100.00;60484.78;5015144;28;20052;-71
2021/10/28 13:03:06;;;;;;;6.32;2.60;;;;;;;-145.18;100.00;60484.78;4900034;29;20203;-73
2021/10/28 13:06:31;;;;;;;5.80;2.40;;;;;;;-145.18;100.00;60484.78;4898181;29;20201;-73
2021/10/28 14:16:27;;;;;;;5.27;2.67;;;;;;;-145.18;100.00;60484.78;5015029;28;20619;-70
2021/10/28 15:28:33;;;;;;;8.00;2.57;;;;;;;-145.18;100.00;60484.78;4994150;28;20200;-70
2021/10/28 15:32:27;;;;;;;5.77;2.73;;;;;;;-145.18;100.00;60484.78;4993872;28;20091;-70
2021/10/28 15:40:10;;;;;;;5.93;2.97;;;;;;;-145.18;100.00;60484.78;4963649;28;20050;-71
2021/10/28 15:42:48;;;;;;;6.73;3.03;;;;;;;-145.18;100.00;60484.78;4994075;28;20042;-70
2021/10/28 16:23:44;;;;;;;7.83;3.30;;;;;;;-145.18;100.00;60484.78;5070134;28;20039;-70
2021/10/28 16:26:10;;;;;;;6.90;3.40;;;;;;;-145.18;100.00;60484.78;5070594;28;20227;-70
2021/10/28 16:28:35;;;;;;;7.50;3.10;;;;;;;-145.18;100.00;60484.78;5073791;28;20031;-70
2021/10/28 16:31:01;;;;;;;7.93;2.90;;;;;;;-145.18;100.00;60484.78;5067704;28;20044;-70
2021/10/28 16:33:27;;;;;;;6.67;2.87;;;;;;;-145.18;100.00;60484.78;5063420;28;20069;-71
2021/10/28 16:35:52;;;;;;;8.67;3.30;;;;;;;-145.18;100.00;60484.78;5075228;28;20193;-71
2021/10/28 16:38:20;;;;;;;7.07;2.97;;;;;;;-145.18;100.00;60484.78;5068946;28;20216;-70
2021/10/28 16:40:45;;;;;;;5.10;2.70;;;;;;;-145.18;100.00;60484.78;5070000;28;20615;-71
2021/10/28 16:43:11;;;;;;;6.03;2.77;;;;;;;-145.18;100.00;60484.78;5068182;28;20032;-70
2021/10/28 16:45:37;;;;;;;6.03;2.67;;;;;;;-145.18;100.00;60484.78;5071116;28;20542;-70
2021/10/28 16:48:06;;;;;;;6.47;2.83;;;;;;;-145.18;100.00;60484.78;5069823;28;20191;-71
2021/10/28 16:50:32;;;;;;;11.40;2.90;;;;;;;-145.18;100.00;60484.78;5067612;28;20035;-71
2021/10/28 16:52:58;;;;;;;6.87;2.53;;;;;;;-145.18;100.00;60484.78;5070650;28;20066;-71
2021/10/28 16:55:23;;;;;;;7.37;2.77;;;;;;;-145.18;100.00;60484.78;5073921;28;20060;-71
2021/10/28 16:57:49;;;;;;;5.57;2.70;;;;;;;-145.18;100.00;60484.78;5070085;28;20707;-71
2021/10/28 17:00:19;;;;;;;8.00;2.90;;;;;;;-145.18;100.00;60484.78;5069807;28;20032;-71
2021/10/28 17:02:45;;;;;;;5.87;2.83;;;;;;;-145.18;100.00;60484.78;5068490;28;20432;-71
2021/10/28 17:05:11;;;;;;;6.83;3.03;;;;;;;-145.18;100.00;60484.78;5063847;28;20041;-71
2021/10/28 17:07:37;;;;;;;6.20;3.00;;;;;;;-145.18;100.00;60484.78;5064434;28;20059;-71
2021/10/28 17:10:04;;;;;;;9.27;3.10;;;;;;;-145.18;100.00;60484.78;5071069;28;20699;-71
2021/10/28 17:12:30;;;;;;;7.37;3.03;;;;;;;-145.18;100.00;60484.78;5071055;28;20297;-71
2021/10/28 17:14:56;;;;;;;6.90;3.03;;;;;;;-145.18;100.00;60484.78;5072819;28;20028;-71
2021/10/28 17:17:22;;;;;;;8.40;2.50;;;;;;;-145.18;100.00;60484.78;5069990;28;20043;-71
2021/10/28 17:19:48;;;;;;;5.63;2.50;;;;;;;-145.18;100.00;60484.78;5063746;28;20178;-71
2021/10/28 17:22:14;;;;;;;5.23;2.40;;;;;;;-145.18;100.00;60484.78;5069847;28;20038;-71
2021/10/28 17:24:46;;;;;;;6.03;2.53;;;;;;;-145.18;100.00;60484.78;5066119;28;20457;-71
2021/10/28 17:27:12;;;;;;;;;;;;;;;-145.18;100.00;60484.78;5065433;28;20640;-71
2021/10/28 17:29:38;;;;;;;4.83;2.40;;;;;;;-145.18;100.00;60484.78;5066539;28;19916;-71
2021/10/28 17:32:05;;;;;;;7.77;2.80;;;;;;;-145.18;100.00;60484.78;5067593;28;20031;-71
2021/10/28 17:34:33;;;;;;;5.67;2.83;;;;;;;-145.18;100.00;60484.78;5063665;28;20032;-71
2021/10/28 17:36:59;;;;;;;6.23;2.80;;;;;;;-145.18;100.00;60484.78;5067718;28;20401;-71
2021/10/28 17:39:27;;;;;;;7.03;3.03;;;;;;;-145.18;100.00;60484.78;5071702;28;20032;-71
2021/10/28 17:41:53;;;;;;;4.93;2.77;;;;;;;-145.18;100.00;60484.78;5072950;28;20027;-71
2021/10/28 17:44:21;;;;;;;5.67;2.87;;;;;;;-145.18;100.00;60484.78;5067673;28;20032;-71
2021/10/28 17:46:46;;;;;;;6.27;2.80;;;;;;;-145.18;100.00;60484.78;5076617;28;20273;-71
2021/10/28 17:49:12;;;;;;;5.57;2.70;;;;;;;-145.18;100.00;60484.78;5070243;28;20035;-71
2021/10/28 17:51:38;;;;;;;5.73;2.93;;;;;;;-145.18;100.00;60484.78;5066340;28;20040;-71
2021/10/28 17:54:09;;;;;;;4.97;2.70;;;;;;;-145.18;100.00;60484.78;5075943;28;20229;-71
2021/10/28 17:56:37;;;;;;;5.57;2.70;;;;;;;-145.18;100.00;60484.78;5075094;28;20520;-71
2021/10/28 17:59:04;;;;;;;6.13;2.70;;;;;;;-145.18;100.00;60484.78;5071951;28;20101;-71
2021/10/28 18:01:31;;;;;;;6.23;3.27;;;;;;;-145.18;100.00;60484.78;5072317;28;20032;-71
2021/10/28 18:03:59;;;;;;;6.23;3.17;;;;;;;-145.18;100.00;60484.78;5067005;28;20176;-71
2021/10/28 18:06:26;;;;;;;6.73;2.77;;;;;;;-145.18;100.00;60484.78;5069678;28;20201;-71
2021/10/28 18:08:51;;;;;;;6.97;2.93;;;;;;;-145.18;100.00;60484.78;5067240;28;20400;-71
2021/10/28 18:11:17;;;;;;;5.30;2.70;;;;;;;-145.18;100.00;60484.78;5074728;28;20545;-71
2021/10/28 18:13:42;;;;;;;6.27;3.10;;;;;;;-145.18;100.00;60484.78;5073197;28;20081;-71
2021/10/28 18:16:08;;;;;;;4.70;2.60;;;;;;;-145.18;100.00;60484.78;5076383;28;20400;-71
2021/10/28 18:18:36;;;;;;;6.57;3.67;;;;;;;-145.18;100.00;60484.78;5075911;28;20064;-70
2021/10/28 18:21:02;;;;;;;6.63;3.63;;;;;;;-145.18;100.00;60484.78;5074216;28;20118;-71
2021/10/28 18:23:29;;;;;;;6.27;3.07;;;;;;;-145.18;100.00;60484.78;5064617;28;20424;-71
2021/10/28 18:25:55;;;;;;;6.47;3.20;;;;;;;-145.18;100.00;60484.78;5066952;28;20219;-71
2021/10/28 18:28:21;;;;;;;5.63;2.90;;;;;;;-145.18;100.00;60484.78;5069223;28;20028;-71
2021/10/28 18:30:47;;;;;;;6.40;3.10;;;;;;;-145.18;100.00;60484.78;5061364;28;20491;-71
2021/10/28 18:33:13;;;;;;;6.83;3.37;;;;;;;-145.18;100.00;60484.78;5067943;28;20598;-71
2021/10/28 18:35:42;;;;;;;6.37;3.00;;;;;;;-145.18;100.00;60484.78;5071840;28;20103;-71
2021/10/28 18:38:10;;;;;;;6.20;3.00;;;;;;;-145.18;100.00;60484.78;5075362;28;20168;-71
2021/10/28 18:40:36;;;;;;;7.83;3.40;;;;;;;-145.18;100.00;60484.78;5074302;28;20494;-71
2021/10/28 18:43:02;;;;;;;8.93;4.10;;;;;;;-145.18;100.00;60484.78;5073745;28;20040;-71
2021/10/28 18:45:28;;;;;;;6.40;3.50;;;;;;;-145.18;100.00;60484.78;5076674;28;20051;-71
2021/10/28 18:47:54;;;;;;;7.10;3.67;;;;;;;-145.18;100.00;60484.78;5072536;28;20101;-71
2021/10/28 18:50:20;;;;;;;6.43;3.30;;;;;;;-145.18;100.00;60484.78;5074410;28;20463;-71
2021/10/28 18:52:46;;;;;;;7.80;3.93;;;;;;;-145.18;100.00;60484.78;5071037;28;20034;-71
2021/10/28 18:55:12;;;;;;;6.33;3.30;;;;;;;-145.18;100.00;60484.78;5077292;28;20040;-71